sensor_id;sensor_type;location;lat;lon;timestamp;temperature;humidity
9762;DHT22;4920;49.594;11.022;2024-03-22T00:00:19;5.50;99.90
9762;DHT22;4920;49.594;11.022;2024-03-22T00:02:45;5.40;99.90
9762;DHT22;4920;49.594;11.022;2024-03-22T00:05:14;5.40;99.90
9762;DHT22;4920;49.594;11.022;2024-03-22T00:07:44;5.30;99.90
9762;DHT22;4920;49.594;11.022;2024-03-22T00:10:12;5.30;99.90
9762;DHT22;4920;49.594;11.022;2024-03-22T00:12:40;5.20;99.90
9762;DHT22;4920;49.594;11.022;2024-03-22T00:15:08;5.20;99.90
9762;DHT22;4920;49.594;11.022;2024-03-22T00:17:35;5.20;99.90
9762;DHT22;4920;49.594;11.022;2024-03-22T00:20:04;5.20;99.90
9762;DHT22;4920;49.594;11.022;2024-03-22T00:22:31;5.20;99.90
9762;DHT22;4920;49.594;11.022;2024-03-22T00:25:01;5.20;99.90
9762;DHT22;4920;49.594;11.022;2024-03-22T00:27:28;5.10;99.90
9762;DHT22;4920;49.594;11.022;2024-03-22T00:29:56;5.10;99.90
9762;DHT22;4920;49.594;11.022;2024-03-22T00:32:23;5.10;99.90
9762;DHT22;4920;49.594;11.022;2024-03-22T00:34:51;5.00;99.90
9762;DHT22;4920;49.594;11.022;2024-03-22T00:37:18;5.00;99.90
9762;DHT22;4920;49.594;11.022;2024-03-22T00:39:46;5.00;99.90
9762;DHT22;4920;49.594;11.022;2024-03-22T00:42:14;5.00;99.90
9762;DHT22;4920;49.594;11.022;2024-03-22T00:44:42;5.00;99.90
9762;DHT22;4920;49.594;11.022;2024-03-22T00:47:09;4.90;99.90
9762;DHT22;4920;49.594;11.022;2024-03-22T00:49:37;4.90;99.90
9762;DHT22;4920;49.594;11.022;2024-03-22T00:52:04;4.90;99.90
9762;DHT22;4920;49.594;11.022;2024-03-22T00:54:33;4.80;99.90
9762;DHT22;4920;49.594;11.022;2024-03-22T00:57:00;4.80;99.90
9762;DHT22;4920;49.594;11.022;2024-03-22T00:59:30;4.80;99.90
9762;DHT22;4920;49.594;11.022;2024-03-22T01:01:57;4.80;99.90
9762;DHT22;4920;49.594;11.022;2024-03-22T01:04:25;4.70;99.90
9762;DHT22;4920;49.594;11.022;2024-03-22T01:06:52;4.70;99.90
9762;DHT22;4920;49.594;11.022;2024-03-22T01:09:20;4.60;99.90
9762;DHT22;4920;49.594;11.022;2024-03-22T01:11:47;4.60;99.90
9762;DHT22;4920;49.594;11.022;2024-03-22T01:14:15;4.50;99.90
9762;DHT22;4920;49.594;11.022;2024-03-22T01:16:43;4.40;99.90
9762;DHT22;4920;49.594;11.022;2024-03-22T01:19:11;4.40;99.90
9762;DHT22;4920;49.594;11.022;2024-03-22T01:21:38;4.30;99.90
9762;DHT22;4920;49.594;11.022;2024-03-22T01:24:07;4.30;99.90
9762;DHT22;4920;49.594;11.022;2024-03-22T01:26:34;4.30;99.90
9762;DHT22;4920;49.594;11.022;2024-03-22T01:29:02;4.30;99.90
9762;DHT22;4920;49.594;11.022;2024-03-22T01:31:28;4.30;99.90
9762;DHT22;4920;49.594;11.022;2024-03-22T01:33:58;4.20;99.90
9762;DHT22;4920;49.594;11.022;2024-03-22T01:36:25;4.20;99.90
9762;DHT22;4920;49.594;11.022;2024-03-22T01:38:53;4.10;99.90
9762;DHT22;4920;49.594;11.022;2024-03-22T01:41:20;4.10;99.90
9762;DHT22;4920;49.594;11.022;2024-03-22T01:43:48;4.10;99.90
9762;DHT22;4920;49.594;11.022;2024-03-22T01:46:15;4.10;99.90
9762;DHT22;4920;49.594;11.022;2024-03-22T01:49:04;4.00;99.90
9762;DHT22;4920;49.594;11.022;2024-03-22T01:51:31;3.90;99.90
9762;DHT22;4920;49.594;11.022;2024-03-22T01:54:01;3.80;99.90
9762;DHT22;4920;49.594;11.022;2024-03-22T01:56:30;3.80;99.90
9762;DHT22;4920;49.594;11.022;2024-03-22T01:58:58;3.90;99.90
9762;DHT22;4920;49.594;11.022;2024-03-22T02:01:25;4.00;99.90
9762;DHT22;4920;49.594;11.022;2024-03-22T02:03:53;4.00;99.90
9762;DHT22;4920;49.594;11.022;2024-03-22T02:06:22;4.00;99.90
9762;DHT22;4920;49.594;11.022;2024-03-22T02:08:50;3.90;99.90
9762;DHT22;4920;49.594;11.022;2024-03-22T02:11:17;3.90;99.90
9762;DHT22;4920;49.594;11.022;2024-03-22T02:13:46;4.00;99.90
9762;DHT22;4920;49.594;11.022;2024-03-22T02:16:13;3.90;99.90
9762;DHT22;4920;49.594;11.022;2024-03-22T02:18:41;3.90;99.90
9762;DHT22;4920;49.594;11.022;2024-03-22T02:21:08;3.80;99.90
9762;DHT22;4920;49.594;11.022;2024-03-22T02:23:39;3.80;99.90
9762;DHT22;4920;49.594;11.022;2024-03-22T02:26:06;3.70;99.90
9762;DHT22;4920;49.594;11.022;2024-03-22T02:28:35;3.80;99.90
9762;DHT22;4920;49.594;11.022;2024-03-22T02:31:03;3.70;99.90
9762;DHT22;4920;49.594;11.022;2024-03-22T02:33:31;3.70;99.90
9762;DHT22;4920;49.594;11.022;2024-03-22T02:35:58;3.70;99.90
9762;DHT22;4920;49.594;11.022;2024-03-22T02:38:26;3.60;99.90
9762;DHT22;4920;49.594;11.022;2024-03-22T02:40:55;3.50;99.90
9762;DHT22;4920;49.594;11.022;2024-03-22T02:43:25;3.40;99.90
9762;DHT22;4920;49.594;11.022;2024-03-22T02:45:52;3.50;99.90
9762;DHT22;4920;49.594;11.022;2024-03-22T02:48:20;3.40;99.90
9762;DHT22;4920;49.594;11.022;2024-03-22T02:50:47;3.40;99.90
9762;DHT22;4920;49.594;11.022;2024-03-22T02:53:15;3.40;99.90
9762;DHT22;4920;49.594;11.022;2024-03-22T02:55:42;3.40;99.90
9762;DHT22;4920;49.594;11.022;2024-03-22T02:58:12;3.40;99.90
9762;DHT22;4920;49.594;11.022;2024-03-22T03:00:39;3.40;99.90
9762;DHT22;4920;49.594;11.022;2024-03-22T03:03:07;3.30;99.90
9762;DHT22;4920;49.594;11.022;2024-03-22T03:05:34;3.30;99.90
9762;DHT22;4920;49.594;11.022;2024-03-22T03:08:02;3.30;99.90
9762;DHT22;4920;49.594;11.022;2024-03-22T03:10:30;3.30;99.90
9762;DHT22;4920;49.594;11.022;2024-03-22T03:12:58;3.30;99.90
9762;DHT22;4920;49.594;11.022;2024-03-22T03:15:26;3.30;99.90
9762;DHT22;4920;49.594;11.022;2024-03-22T03:17:54;3.20;99.90
9762;DHT22;4920;49.594;11.022;2024-03-22T03:20:21;3.20;99.90
9762;DHT22;4920;49.594;11.022;2024-03-22T03:22:49;3.20;99.90
9762;DHT22;4920;49.594;11.022;2024-03-22T03:25:16;3.20;99.90
9762;DHT22;4920;49.594;11.022;2024-03-22T03:27:44;3.10;99.90
9762;DHT22;4920;49.594;11.022;2024-03-22T03:30:11;3.20;99.90
9762;DHT22;4920;49.594;11.022;2024-03-22T03:32:41;3.20;99.90
9762;DHT22;4920;49.594;11.022;2024-03-22T03:35:08;3.10;99.90
9762;DHT22;4920;49.594;11.022;2024-03-22T03:37:36;3.10;99.90
9762;DHT22;4920;49.594;11.022;2024-03-22T03:40:04;3.10;99.90
9762;DHT22;4920;49.594;11.022;2024-03-22T03:42:32;3.10;99.90
9762;DHT22;4920;49.594;11.022;2024-03-22T03:44:59;3.10;99.90
9762;DHT22;4920;49.594;11.022;2024-03-22T03:47:27;3.00;99.90
9762;DHT22;4920;49.594;11.022;2024-03-22T03:49:55;3.10;99.90
9762;DHT22;4920;49.594;11.022;2024-03-22T03:52:24;3.10;99.90
9762;DHT22;4920;49.594;11.022;2024-03-22T03:54:51;3.10;99.90
9762;DHT22;4920;49.594;11.022;2024-03-22T03:57:19;3.10;99.90
9762;DHT22;4920;49.594;11.022;2024-03-22T03:59:46;3.10;99.90
9762;DHT22;4920;49.594;11.022;2024-03-22T04:02:14;3.20;99.90
9762;DHT22;4920;49.594;11.022;2024-03-22T04:04:41;3.20;99.90
9762;DHT22;4920;49.594;11.022;2024-03-22T04:07:11;3.20;99.90
9762;DHT22;4920;49.594;11.022;2024-03-22T04:09:38;3.20;99.90
9762;DHT22;4920;49.594;11.022;2024-03-22T04:12:06;3.10;99.90
9762;DHT22;4920;49.594;11.022;2024-03-22T04:14:34;3.20;99.90
9762;DHT22;4920;49.594;11.022;2024-03-22T04:17:02;3.20;99.90
9762;DHT22;4920;49.594;11.022;2024-03-22T04:19:29;3.10;99.90
9762;DHT22;4920;49.594;11.022;2024-03-22T04:21:57;3.10;99.90
9762;DHT22;4920;49.594;11.022;2024-03-22T04:24:26;3.20;99.90
9762;DHT22;4920;49.594;11.022;2024-03-22T04:26:54;3.20;99.90
9762;DHT22;4920;49.594;11.022;2024-03-22T04:29:21;3.20;99.90
9762;DHT22;4920;49.594;11.022;2024-03-22T04:31:49;3.30;99.90
9762;DHT22;4920;49.594;11.022;2024-03-22T04:34:16;3.30;99.90
9762;DHT22;4920;49.594;11.022;2024-03-22T04:36:45;3.30;99.90
9762;DHT22;4920;49.594;11.022;2024-03-22T04:39:12;3.30;99.90
9762;DHT22;4920;49.594;11.022;2024-03-22T04:41:41;3.40;99.90
9762;DHT22;4920;49.594;11.022;2024-03-22T04:44:08;3.40;99.90
9762;DHT22;4920;49.594;11.022;2024-03-22T04:46:36;3.40;99.90
9762;DHT22;4920;49.594;11.022;2024-03-22T04:49:03;3.30;99.90
9762;DHT22;4920;49.594;11.022;2024-03-22T04:51:31;3.30;99.90
9762;DHT22;4920;49.594;11.022;2024-03-22T04:53:58;3.20;99.90
9762;DHT22;4920;49.594;11.022;2024-03-22T04:56:26;3.20;99.90
9762;DHT22;4920;49.594;11.022;2024-03-22T04:58:55;3.20;99.90
9762;DHT22;4920;49.594;11.022;2024-03-22T05:01:23;3.10;99.90
9762;DHT22;4920;49.594;11.022;2024-03-22T05:03:50;3.10;99.90
9762;DHT22;4920;49.594;11.022;2024-03-22T05:06:18;3.00;99.90
9762;DHT22;4920;49.594;11.022;2024-03-22T05:08:45;2.90;99.90
9762;DHT22;4920;49.594;11.022;2024-03-22T05:11:13;3.00;99.90
9762;DHT22;4920;49.594;11.022;2024-03-22T05:13:40;2.90;99.90
9762;DHT22;4920;49.594;11.022;2024-03-22T05:16:10;3.00;99.90
9762;DHT22;4920;49.594;11.022;2024-03-22T05:18:37;3.00;99.90
9762;DHT22;4920;49.594;11.022;2024-03-22T05:21:06;2.90;99.90
9762;DHT22;4920;49.594;11.022;2024-03-22T05:23:33;3.00;99.90
9762;DHT22;4920;49.594;11.022;2024-03-22T05:26:01;3.00;99.90
9762;DHT22;4920;49.594;11.022;2024-03-22T05:28:28;3.00;99.90
9762;DHT22;4920;49.594;11.022;2024-03-22T05:30:57;3.00;99.90
9762;DHT22;4920;49.594;11.022;2024-03-22T05:33:28;3.00;99.90
9762;DHT22;4920;49.594;11.022;2024-03-22T05:35:57;3.00;99.90
9762;DHT22;4920;49.594;11.022;2024-03-22T05:38:24;3.00;99.90
9762;DHT22;4920;49.594;11.022;2024-03-22T05:40:53;3.10;99.90
9762;DHT22;4920;49.594;11.022;2024-03-22T05:43:21;3.10;99.90
9762;DHT22;4920;49.594;11.022;2024-03-22T05:45:49;3.10;99.90
9762;DHT22;4920;49.594;11.022;2024-03-22T05:48:16;3.30;99.90
9762;DHT22;4920;49.594;11.022;2024-03-22T05:50:46;3.30;99.90
9762;DHT22;4920;49.594;11.022;2024-03-22T05:53:13;3.40;99.90
9762;DHT22;4920;49.594;11.022;2024-03-22T05:55:42;3.50;99.90
9762;DHT22;4920;49.594;11.022;2024-03-22T05:58:09;3.50;99.90
9762;DHT22;4920;49.594;11.022;2024-03-22T06:00:38;3.50;99.90
9762;DHT22;4920;49.594;11.022;2024-03-22T06:03:05;3.60;99.90
9762;DHT22;4920;49.594;11.022;2024-03-22T06:05:33;3.60;99.90
9762;DHT22;4920;49.594;11.022;2024-03-22T06:08:02;3.70;99.90
9762;DHT22;4920;49.594;11.022;2024-03-22T06:10:31;3.70;99.90
9762;DHT22;4920;49.594;11.022;2024-03-22T06:12:58;3.80;99.90
9762;DHT22;4920;49.594;11.022;2024-03-22T06:15:26;3.90;99.90
9762;DHT22;4920;49.594;11.022;2024-03-22T06:17:53;4.10;99.90
9762;DHT22;4920;49.594;11.022;2024-03-22T06:20:21;4.40;99.90
9762;DHT22;4920;49.594;11.022;2024-03-22T06:22:48;4.60;99.90
9762;DHT22;4920;49.594;11.022;2024-03-22T06:25:18;4.80;99.90
9762;DHT22;4920;49.594;11.022;2024-03-22T06:27:45;4.90;99.90
9762;DHT22;4920;49.594;11.022;2024-03-22T06:30:13;5.00;99.90
9762;DHT22;4920;49.594;11.022;2024-03-22T06:32:40;5.10;99.90
9762;DHT22;4920;49.594;11.022;2024-03-22T06:35:08;5.20;99.90
9762;DHT22;4920;49.594;11.022;2024-03-22T06:37:35;5.30;99.90
9762;DHT22;4920;49.594;11.022;2024-03-22T06:40:04;5.50;99.90
9762;DHT22;4920;49.594;11.022;2024-03-22T06:42:33;5.70;99.90
9762;DHT22;4920;49.594;11.022;2024-03-22T06:45:02;5.90;99.90
9762;DHT22;4920;49.594;11.022;2024-03-22T06:47:29;6.00;99.90
9762;DHT22;4920;49.594;11.022;2024-03-22T06:49:57;6.20;99.90
9762;DHT22;4920;49.594;11.022;2024-03-22T06:52:24;6.30;99.90
9762;DHT22;4920;49.594;11.022;2024-03-22T06:54:52;6.40;99.90
9762;DHT22;4920;49.594;11.022;2024-03-22T06:57:19;6.50;99.90
9762;DHT22;4920;49.594;11.022;2024-03-22T06:59:49;6.60;99.90
9762;DHT22;4920;49.594;11.022;2024-03-22T07:02:16;6.80;99.90
9762;DHT22;4920;49.594;11.022;2024-03-22T07:04:44;6.80;99.90
9762;DHT22;4920;49.594;11.022;2024-03-22T07:07:11;7.00;99.90
9762;DHT22;4920;49.594;11.022;2024-03-22T07:09:40;7.20;99.90
9762;DHT22;4920;49.594;11.022;2024-03-22T07:12:07;7.30;99.90
9762;DHT22;4920;49.594;11.022;2024-03-22T07:14:35;7.40;99.90
9762;DHT22;4920;49.594;11.022;2024-03-22T07:17:04;7.50;99.90
9762;DHT22;4920;49.594;11.022;2024-03-22T07:19:32;7.70;99.90
9762;DHT22;4920;49.594;11.022;2024-03-22T07:22:01;7.80;99.90
9762;DHT22;4920;49.594;11.022;2024-03-22T07:24:29;8.00;99.90
9762;DHT22;4920;49.594;11.022;2024-03-22T07:26:56;8.10;99.90
9762;DHT22;4920;49.594;11.022;2024-03-22T07:29:24;8.20;99.90
9762;DHT22;4920;49.594;11.022;2024-03-22T07:31:51;8.40;99.90
9762;DHT22;4920;49.594;11.022;2024-03-22T07:34:21;8.50;99.90
9762;DHT22;4920;49.594;11.022;2024-03-22T07:36:48;8.70;99.90
9762;DHT22;4920;49.594;11.022;2024-03-22T07:39:16;8.80;99.90
9762;DHT22;4920;49.594;11.022;2024-03-22T07:41:43;8.90;99.90
9762;DHT22;4920;49.594;11.022;2024-03-22T07:44:11;9.00;99.90
9762;DHT22;4920;49.594;11.022;2024-03-22T07:46:38;9.20;99.90
9762;DHT22;4920;49.594;11.022;2024-03-22T07:49:06;9.30;99.90
9762;DHT22;4920;49.594;11.022;2024-03-22T07:51:35;9.50;99.90
9762;DHT22;4920;49.594;11.022;2024-03-22T07:54:03;9.60;99.90
9762;DHT22;4920;49.594;11.022;2024-03-22T07:56:30;9.80;99.90
9762;DHT22;4920;49.594;11.022;2024-03-22T07:58:58;10.00;99.90
9762;DHT22;4920;49.594;11.022;2024-03-22T08:01:26;10.20;99.90
9762;DHT22;4920;49.594;11.022;2024-03-22T08:03:54;10.30;99.90
9762;DHT22;4920;49.594;11.022;2024-03-22T08:06:21;10.50;99.90
9762;DHT22;4920;49.594;11.022;2024-03-22T08:08:51;10.60;99.90
9762;DHT22;4920;49.594;11.022;2024-03-22T08:11:18;10.70;99.90
9762;DHT22;4920;49.594;11.022;2024-03-22T08:13:46;10.80;99.90
9762;DHT22;4920;49.594;11.022;2024-03-22T08:16:13;11.00;99.90
9762;DHT22;4920;49.594;11.022;2024-03-22T08:19:02;10.90;99.90
9762;DHT22;4920;49.594;11.022;2024-03-22T08:21:29;10.90;99.90
9762;DHT22;4920;49.594;11.022;2024-03-22T08:23:59;10.90;99.90
9762;DHT22;4920;49.594;11.022;2024-03-22T08:26:26;11.00;99.90
9762;DHT22;4920;49.594;11.022;2024-03-22T08:28:54;10.90;99.90
9762;DHT22;4920;49.594;11.022;2024-03-22T08:31:21;11.00;99.90
9762;DHT22;4920;49.594;11.022;2024-03-22T08:33:52;11.10;99.90
9762;DHT22;4920;49.594;11.022;2024-03-22T08:36:19;11.10;99.90
9762;DHT22;4920;49.594;11.022;2024-03-22T08:38:47;11.10;99.90
9762;DHT22;4920;49.594;11.022;2024-03-22T08:41:15;11.00;99.90
9762;DHT22;4920;49.594;11.022;2024-03-22T08:43:43;11.00;99.90
9762;DHT22;4920;49.594;11.022;2024-03-22T08:46:11;10.90;99.90
9762;DHT22;4920;49.594;11.022;2024-03-22T08:48:40;10.90;99.90
9762;DHT22;4920;49.594;11.022;2024-03-22T08:51:07;10.80;99.90
9762;DHT22;4920;49.594;11.022;2024-03-22T08:53:35;10.90;99.90
9762;DHT22;4920;49.594;11.022;2024-03-22T08:56:02;11.00;99.90
9762;DHT22;4920;49.594;11.022;2024-03-22T08:58:32;11.10;99.90
9762;DHT22;4920;49.594;11.022;2024-03-22T09:00:59;11.30;99.90
9762;DHT22;4920;49.594;11.022;2024-03-22T09:03:27;11.40;99.90
9762;DHT22;4920;49.594;11.022;2024-03-22T09:05:54;11.60;99.90
9762;DHT22;4920;49.594;11.022;2024-03-22T09:08:22;11.70;99.90
9762;DHT22;4920;49.594;11.022;2024-03-22T09:10:49;12.00;99.90
9762;DHT22;4920;49.594;11.022;2024-03-22T09:13:17;12.10;99.90
9762;DHT22;4920;49.594;11.022;2024-03-22T09:15:45;12.30;99.90
9762;DHT22;4920;49.594;11.022;2024-03-22T09:18:14;12.50;99.90
9762;DHT22;4920;49.594;11.022;2024-03-22T09:20:41;12.70;99.90
9762;DHT22;4920;49.594;11.022;2024-03-22T09:23:09;12.90;99.90
9762;DHT22;4920;49.594;11.022;2024-03-22T09:25:36;13.10;99.90
9762;DHT22;4920;49.594;11.022;2024-03-22T09:28:06;13.30;99.90
9762;DHT22;4920;49.594;11.022;2024-03-22T09:30:32;13.50;99.90
9762;DHT22;4920;49.594;11.022;2024-03-22T09:33:02;13.70;99.90
9762;DHT22;4920;49.594;11.022;2024-03-22T09:35:30;13.90;99.90
9762;DHT22;4920;49.594;11.022;2024-03-22T09:37:58;14.00;99.90
9762;DHT22;4920;49.594;11.022;2024-03-22T09:40:26;14.10;99.90
9762;DHT22;4920;49.594;11.022;2024-03-22T09:42:54;14.20;99.90
9762;DHT22;4920;49.594;11.022;2024-03-22T09:45:26;14.40;99.90
9762;DHT22;4920;49.594;11.022;2024-03-22T09:47:56;14.60;99.90
9762;DHT22;4920;49.594;11.022;2024-03-22T09:50:25;14.70;99.90
9762;DHT22;4920;49.594;11.022;2024-03-22T09:52:53;14.90;99.90
9762;DHT22;4920;49.594;11.022;2024-03-22T09:55:23;15.10;99.90
9762;DHT22;4920;49.594;11.022;2024-03-22T09:57:51;15.40;99.90
9762;DHT22;4920;49.594;11.022;2024-03-22T10:00:20;15.80;99.90
9762;DHT22;4920;49.594;11.022;2024-03-22T10:02:51;16.20;99.90
9762;DHT22;4920;49.594;11.022;2024-03-22T10:05:19;16.60;99.90
9762;DHT22;4920;49.594;11.022;2024-03-22T10:07:49;17.00;99.90
9762;DHT22;4920;49.594;11.022;2024-03-22T10:10:18;17.30;99.90
9762;DHT22;4920;49.594;11.022;2024-03-22T10:12:47;17.60;99.90
9762;DHT22;4920;49.594;11.022;2024-03-22T10:15:14;17.80;99.90
9762;DHT22;4920;49.594;11.022;2024-03-22T10:17:43;17.90;99.90
9762;DHT22;4920;49.594;11.022;2024-03-22T10:20:13;17.90;99.90
9762;DHT22;4920;49.594;11.022;2024-03-22T10:22:55;18.00;99.90
9762;DHT22;4920;49.594;11.022;2024-03-22T10:25:23;18.10;99.90
9762;DHT22;4920;49.594;11.022;2024-03-22T10:27:53;18.20;99.90
9762;DHT22;4920;49.594;11.022;2024-03-22T10:30:20;18.40;99.90
9762;DHT22;4920;49.594;11.022;2024-03-22T10:32:51;18.70;99.90
9762;DHT22;4920;49.594;11.022;2024-03-22T10:35:18;18.90;99.90
9762;DHT22;4920;49.594;11.022;2024-03-22T10:37:49;19.10;99.90
9762;DHT22;4920;49.594;11.022;2024-03-22T10:40:16;19.40;99.90
9762;DHT22;4920;49.594;11.022;2024-03-22T10:42:45;19.60;99.90
9762;DHT22;4920;49.594;11.022;2024-03-22T10:45:12;19.70;99.90
9762;DHT22;4920;49.594;11.022;2024-03-22T10:47:40;19.80;99.90
9762;DHT22;4920;49.594;11.022;2024-03-22T10:50:09;20.00;99.90
9762;DHT22;4920;49.594;11.022;2024-03-22T10:52:40;19.90;99.90
9762;DHT22;4920;49.594;11.022;2024-03-22T10:55:13;20.00;99.90
9762;DHT22;4920;49.594;11.022;2024-03-22T10:57:43;20.20;99.90
9762;DHT22;4920;49.594;11.022;2024-03-22T11:00:12;20.30;99.90
9762;DHT22;4920;49.594;11.022;2024-03-22T11:02:44;20.50;99.90
9762;DHT22;4920;49.594;11.022;2024-03-22T11:05:16;20.80;99.90
9762;DHT22;4920;49.594;11.022;2024-03-22T11:07:45;21.00;99.90
9762;DHT22;4920;49.594;11.022;2024-03-22T11:10:14;21.30;99.90
9762;DHT22;4920;49.594;11.022;2024-03-22T11:12:42;21.40;99.90
9762;DHT22;4920;49.594;11.022;2024-03-22T11:15:09;21.50;99.90
9762;DHT22;4920;49.594;11.022;2024-03-22T11:17:39;21.50;99.90
9762;DHT22;4920;49.594;11.022;2024-03-22T11:20:08;21.40;99.30
9762;DHT22;4920;49.594;11.022;2024-03-22T11:22:38;21.30;98.90
9762;DHT22;4920;49.594;11.022;2024-03-22T11:25:06;21.20;98.30
9762;DHT22;4920;49.594;11.022;2024-03-22T11:27:35;21.20;97.40
9762;DHT22;4920;49.594;11.022;2024-03-22T11:30:03;21.00;96.80
9762;DHT22;4920;49.594;11.022;2024-03-22T11:32:33;20.70;97.10
9762;DHT22;4920;49.594;11.022;2024-03-22T11:35:09;20.50;97.90
9762;DHT22;4920;49.594;11.022;2024-03-22T11:37:38;20.40;97.50
9762;DHT22;4920;49.594;11.022;2024-03-22T11:40:08;20.30;97.60
9762;DHT22;4920;49.594;11.022;2024-03-22T11:42:40;20.30;96.80
9762;DHT22;4920;49.594;11.022;2024-03-22T11:45:10;20.20;97.00
9762;DHT22;4920;49.594;11.022;2024-03-22T11:47:39;20.20;97.50
9762;DHT22;4920;49.594;11.022;2024-03-22T11:50:07;20.40;97.60
9762;DHT22;4920;49.594;11.022;2024-03-22T11:52:35;20.50;97.10
9762;DHT22;4920;49.594;11.022;2024-03-22T11:55:04;20.70;96.70
9762;DHT22;4920;49.594;11.022;2024-03-22T11:57:33;20.70;96.30
9762;DHT22;4920;49.594;11.022;2024-03-22T12:00:02;20.60;95.20
9762;DHT22;4920;49.594;11.022;2024-03-22T12:02:41;20.60;95.30
9762;DHT22;4920;49.594;11.022;2024-03-22T12:05:09;20.60;93.90
9762;DHT22;4920;49.594;11.022;2024-03-22T12:07:37;20.60;93.60
9762;DHT22;4920;49.594;11.022;2024-03-22T12:10:07;20.50;93.80
9762;DHT22;4920;49.594;11.022;2024-03-22T12:12:35;20.60;93.90
9762;DHT22;4920;49.594;11.022;2024-03-22T12:15:05;20.60;93.90
9762;DHT22;4920;49.594;11.022;2024-03-22T12:17:33;20.70;93.10
9762;DHT22;4920;49.594;11.022;2024-03-22T12:20:02;20.70;93.40
9762;DHT22;4920;49.594;11.022;2024-03-22T12:22:31;20.70;93.10
9762;DHT22;4920;49.594;11.022;2024-03-22T12:24:58;20.70;93.40
9762;DHT22;4920;49.594;11.022;2024-03-22T12:27:27;20.80;92.90
9762;DHT22;4920;49.594;11.022;2024-03-22T12:29:54;20.70;92.70
9762;DHT22;4920;49.594;11.022;2024-03-22T12:32:23;20.60;93.10
9762;DHT22;4920;49.594;11.022;2024-03-22T12:34:50;20.70;93.10
9762;DHT22;4920;49.594;11.022;2024-03-22T12:37:18;20.80;93.10
9762;DHT22;4920;49.594;11.022;2024-03-22T12:39:45;21.10;93.60
9762;DHT22;4920;49.594;11.022;2024-03-22T12:42:14;21.40;93.80
9762;DHT22;4920;49.594;11.022;2024-03-22T12:44:41;21.80;93.50
9762;DHT22;4920;49.594;11.022;2024-03-22T12:47:09;22.20;92.60
9762;DHT22;4920;49.594;11.022;2024-03-22T12:49:37;22.30;91.90
9762;DHT22;4920;49.594;11.022;2024-03-22T12:52:06;22.40;91.30
9762;DHT22;4920;49.594;11.022;2024-03-22T12:54:33;22.50;90.80
9762;DHT22;4920;49.594;11.022;2024-03-22T12:57:01;22.50;90.40
9762;DHT22;4920;49.594;11.022;2024-03-22T12:59:29;22.60;90.10
9762;DHT22;4920;49.594;11.022;2024-03-22T13:01:57;22.70;90.70
9762;DHT22;4920;49.594;11.022;2024-03-22T13:04:24;23.00;88.90
9762;DHT22;4920;49.594;11.022;2024-03-22T13:06:54;23.00;90.00
9762;DHT22;4920;49.594;11.022;2024-03-22T13:09:21;23.10;90.10
9762;DHT22;4920;49.594;11.022;2024-03-22T13:11:49;23.30;89.20
9762;DHT22;4920;49.594;11.022;2024-03-22T13:14:16;23.40;87.30
9762;DHT22;4920;49.594;11.022;2024-03-22T13:16:46;23.40;86.20
9762;DHT22;4920;49.594;11.022;2024-03-22T13:19:13;23.40;86.50
9762;DHT22;4920;49.594;11.022;2024-03-22T13:21:41;23.40;86.10
9762;DHT22;4920;49.594;11.022;2024-03-22T13:24:12;23.40;86.10
9762;DHT22;4920;49.594;11.022;2024-03-22T13:26:40;23.40;85.10
9762;DHT22;4920;49.594;11.022;2024-03-22T13:29:07;23.40;84.10
9762;DHT22;4920;49.594;11.022;2024-03-22T13:31:35;23.40;83.40
9762;DHT22;4920;49.594;11.022;2024-03-22T13:34:02;23.20;83.40
9762;DHT22;4920;49.594;11.022;2024-03-22T13:36:31;22.90;82.80
9762;DHT22;4920;49.594;11.022;2024-03-22T13:38:59;22.70;82.60
9762;DHT22;4920;49.594;11.022;2024-03-22T13:41:30;22.50;82.30
9762;DHT22;4920;49.594;11.022;2024-03-22T13:43:57;22.30;83.70
9762;DHT22;4920;49.594;11.022;2024-03-22T13:46:29;22.20;82.70
9762;DHT22;4920;49.594;11.022;2024-03-22T13:48:56;22.00;82.50
9762;DHT22;4920;49.594;11.022;2024-03-22T13:51:25;21.90;83.60
9762;DHT22;4920;49.594;11.022;2024-03-22T13:53:54;21.90;82.90
9762;DHT22;4920;49.594;11.022;2024-03-22T13:56:23;21.80;83.50
9762;DHT22;4920;49.594;11.022;2024-03-22T13:58:51;21.90;84.20
9762;DHT22;4920;49.594;11.022;2024-03-22T14:01:19;22.00;84.30
9762;DHT22;4920;49.594;11.022;2024-03-22T14:03:46;22.10;85.60
9762;DHT22;4920;49.594;11.022;2024-03-22T14:06:15;22.10;85.30
9762;DHT22;4920;49.594;11.022;2024-03-22T14:08:42;22.10;85.30
9762;DHT22;4920;49.594;11.022;2024-03-22T14:11:10;22.00;82.60
9762;DHT22;4920;49.594;11.022;2024-03-22T14:13:37;21.80;81.50
9762;DHT22;4920;49.594;11.022;2024-03-22T14:16:07;21.50;81.20
9762;DHT22;4920;49.594;11.022;2024-03-22T14:18:34;21.30;82.40
9762;DHT22;4920;49.594;11.022;2024-03-22T14:21:03;21.10;84.60
9762;DHT22;4920;49.594;11.022;2024-03-22T14:23:30;21.10;84.70
9762;DHT22;4920;49.594;11.022;2024-03-22T14:25:58;21.10;85.20
9762;DHT22;4920;49.594;11.022;2024-03-22T14:28:26;21.10;84.30
9762;DHT22;4920;49.594;11.022;2024-03-22T14:30:54;21.00;83.80
9762;DHT22;4920;49.594;11.022;2024-03-22T14:33:23;20.90;85.00
9762;DHT22;4920;49.594;11.022;2024-03-22T14:35:50;20.90;86.40
9762;DHT22;4920;49.594;11.022;2024-03-22T14:38:18;20.70;86.00
9762;DHT22;4920;49.594;11.022;2024-03-22T14:40:45;20.70;86.30
9762;DHT22;4920;49.594;11.022;2024-03-22T14:43:15;20.60;86.60
9762;DHT22;4920;49.594;11.022;2024-03-22T14:45:41;20.60;86.40
9762;DHT22;4920;49.594;11.022;2024-03-22T14:48:10;20.50;86.20
9762;DHT22;4920;49.594;11.022;2024-03-22T14:50:38;20.50;87.70
9762;DHT22;4920;49.594;11.022;2024-03-22T14:53:06;20.40;87.30
9762;DHT22;4920;49.594;11.022;2024-03-22T14:55:33;20.40;87.50
9762;DHT22;4920;49.594;11.022;2024-03-22T14:58:03;20.40;88.00
9762;DHT22;4920;49.594;11.022;2024-03-22T15:00:30;20.40;87.40
9762;DHT22;4920;49.594;11.022;2024-03-22T15:02:58;20.40;87.50
9762;DHT22;4920;49.594;11.022;2024-03-22T15:05:25;20.40;88.00
9762;DHT22;4920;49.594;11.022;2024-03-22T15:07:55;20.30;86.40
9762;DHT22;4920;49.594;11.022;2024-03-22T15:10:22;20.20;87.40
9762;DHT22;4920;49.594;11.022;2024-03-22T15:12:50;19.90;86.90
9762;DHT22;4920;49.594;11.022;2024-03-22T15:15:17;19.70;87.50
9762;DHT22;4920;49.594;11.022;2024-03-22T15:17:45;19.50;88.50
9762;DHT22;4920;49.594;11.022;2024-03-22T15:20:12;19.30;89.20
9762;DHT22;4920;49.594;11.022;2024-03-22T15:22:41;19.10;87.60
9762;DHT22;4920;49.594;11.022;2024-03-22T15:25:10;18.90;88.60
9762;DHT22;4920;49.594;11.022;2024-03-22T15:27:38;18.80;89.30
9762;DHT22;4920;49.594;11.022;2024-03-22T15:30:07;18.70;89.60
9762;DHT22;4920;49.594;11.022;2024-03-22T15:32:36;18.60;89.80
9762;DHT22;4920;49.594;11.022;2024-03-22T15:35:04;18.60;90.00
9762;DHT22;4920;49.594;11.022;2024-03-22T15:37:34;18.50;89.50
9762;DHT22;4920;49.594;11.022;2024-03-22T15:40:01;18.40;90.10
9762;DHT22;4920;49.594;11.022;2024-03-22T15:42:32;18.30;90.40
9762;DHT22;4920;49.594;11.022;2024-03-22T15:44:59;18.20;90.70
9762;DHT22;4920;49.594;11.022;2024-03-22T15:47:30;18.10;91.10
9762;DHT22;4920;49.594;11.022;2024-03-22T15:49:57;18.10;91.40
9762;DHT22;4920;49.594;11.022;2024-03-22T15:52:26;18.00;92.60
9762;DHT22;4920;49.594;11.022;2024-03-22T15:54:53;17.90;91.60
9762;DHT22;4920;49.594;11.022;2024-03-22T15:57:21;17.80;91.70
9762;DHT22;4920;49.594;11.022;2024-03-22T15:59:50;17.80;92.10